sensor_id;sensor_type;location;lat;lon;timestamp;P1;durP1;ratioP1;P2;durP2;ratioP2
55633;SDS011;41504;53.162;6.788;2023-10-13T00:02:00;52.75;;;26.55;;
55633;SDS011;41504;53.162;6.788;2023-10-13T00:04:30;60.22;;;29.08;;
55633;SDS011;41504;53.162;6.788;2023-10-13T00:09:29;47.10;;;25.92;;
55633;SDS011;41504;53.162;6.788;2023-10-13T00:12:04;54.17;;;27.90;;
55633;SDS011;41504;53.162;6.788;2023-10-13T00:14:34;58.67;;;29.40;;
55633;SDS011;41504;53.162;6.788;2023-10-13T00:17:01;63.25;;;31.55;;
55633;SDS011;41504;53.162;6.788;2023-10-13T00:19:37;61.33;;;30.67;;
55633;SDS011;41504;53.162;6.788;2023-10-13T00:22:09;51.78;;;29.80;;
55633;SDS011;41504;53.162;6.788;2023-10-13T00:24:38;56.15;;;29.45;;
55633;SDS011;41504;53.162;6.788;2023-10-13T00:27:18;60.83;;;31.80;;
55633;SDS011;41504;53.162;6.788;2023-10-13T00:30:02;56.10;;;29.80;;
55633;SDS011;41504;53.162;6.788;2023-10-13T00:32:51;63.05;;;32.40;;
55633;SDS011;41504;53.162;6.788;2023-10-13T00:35:20;52.45;;;29.50;;
55633;SDS011;41504;53.162;6.788;2023-10-13T00:38:02;52.75;;;29.38;;
55633;SDS011;41504;53.162;6.788;2023-10-13T00:40:38;60.95;;;31.25;;
55633;SDS011;41504;53.162;6.788;2023-10-13T00:43:05;61.97;;;32.30;;
55633;SDS011;41504;53.162;6.788;2023-10-13T00:45:46;62.65;;;32.50;;
55633;SDS011;41504;53.162;6.788;2023-10-13T00:48:37;55.90;;;31.23;;
55633;SDS011;41504;53.162;6.788;2023-10-13T00:51:11;58.03;;;30.42;;
55633;SDS011;41504;53.162;6.788;2023-10-13T00:53:47;59.80;;;31.77;;
55633;SDS011;41504;53.162;6.788;2023-10-13T00:56:14;60.90;;;32.08;;
55633;SDS011;41504;53.162;6.788;2023-10-13T00:58:52;67.47;;;32.72;;
55633;SDS011;41504;53.162;6.788;2023-10-13T01:01:23;50.78;;;28.52;;
55633;SDS011;41504;53.162;6.788;2023-10-13T01:03:57;67.45;;;30.88;;
55633;SDS011;41504;53.162;6.788;2023-10-13T01:06:43;60.33;;;30.50;;
55633;SDS011;41504;53.162;6.788;2023-10-13T01:09:14;58.70;;;29.73;;
55633;SDS011;41504;53.162;6.788;2023-10-13T01:11:47;51.70;;;28.50;;
55633;SDS011;41504;53.162;6.788;2023-10-13T01:14:20;54.75;;;29.08;;
55633;SDS011;41504;53.162;6.788;2023-10-13T01:16:48;55.47;;;30.15;;
55633;SDS011;41504;53.162;6.788;2023-10-13T01:19:20;57.47;;;29.73;;
55633;SDS011;41504;53.162;6.788;2023-10-13T01:21:55;49.22;;;27.48;;
55633;SDS011;41504;53.162;6.788;2023-10-13T01:24:29;46.83;;;26.48;;
55633;SDS011;41504;53.162;6.788;2023-10-13T01:26:59;54.70;;;29.08;;
55633;SDS011;41504;53.162;6.788;2023-10-13T01:29:49;50.05;;;27.42;;
55633;SDS011;41504;53.162;6.788;2023-10-13T01:32:21;48.15;;;27.20;;
55633;SDS011;41504;53.162;6.788;2023-10-13T01:34:48;43.95;;;25.23;;
55633;SDS011;41504;53.162;6.788;2023-10-13T01:37:20;50.05;;;27.30;;
55633;SDS011;41504;53.162;6.788;2023-10-13T01:39:46;53.33;;;27.83;;
55633;SDS011;41504;53.162;6.788;2023-10-13T01:42:14;43.53;;;25.60;;
55633;SDS011;41504;53.162;6.788;2023-10-13T01:44:46;46.10;;;26.65;;
55633;SDS011;41504;53.162;6.788;2023-10-13T01:47:12;48.97;;;26.05;;
55633;SDS011;41504;53.162;6.788;2023-10-13T01:49:38;42.67;;;23.85;;
55633;SDS011;41504;53.162;6.788;2023-10-13T01:52:10;49.33;;;25.33;;
55633;SDS011;41504;53.162;6.788;2023-10-13T01:54:37;43.03;;;24.45;;
55633;SDS011;41504;53.162;6.788;2023-10-13T01:57:09;43.40;;;24.75;;
55633;SDS011;41504;53.162;6.788;2023-10-13T01:59:49;36.55;;;23.40;;
55633;SDS011;41504;53.162;6.788;2023-10-13T02:02:15;40.42;;;24.00;;
55633;SDS011;41504;53.162;6.788;2023-10-13T02:04:53;38.95;;;22.92;;
55633;SDS011;41504;53.162;6.788;2023-10-13T02:07:26;40.78;;;22.27;;
55633;SDS011;41504;53.162;6.788;2023-10-13T02:09:57;35.85;;;21.98;;
55633;SDS011;41504;53.162;6.788;2023-10-13T02:12:24;38.28;;;22.33;;
55633;SDS011;41504;53.162;6.788;2023-10-13T02:15:07;38.55;;;21.45;;
55633;SDS011;41504;53.162;6.788;2023-10-13T02:17:48;35.40;;;20.02;;
55633;SDS011;41504;53.162;6.788;2023-10-13T02:20:17;33.47;;;20.27;;
55633;SDS011;41504;53.162;6.788;2023-10-13T02:22:43;35.00;;;20.42;;
55633;SDS011;41504;53.162;6.788;2023-10-13T02:25:18;31.75;;;19.38;;
55633;SDS011;41504;53.162;6.788;2023-10-13T02:28:03;33.92;;;20.15;;
55633;SDS011;41504;53.162;6.788;2023-10-13T02:30:39;34.13;;;19.92;;
55633;SDS011;41504;53.162;6.788;2023-10-13T02:33:13;34.80;;;21.10;;
55633;SDS011;41504;53.162;6.788;2023-10-13T02:35:40;33.63;;;20.98;;
55633;SDS011;41504;53.162;6.788;2023-10-13T02:38:16;34.17;;;20.10;;
55633;SDS011;41504;53.162;6.788;2023-10-13T02:40:51;38.47;;;21.80;;
55633;SDS011;41504;53.162;6.788;2023-10-13T02:43:19;32.20;;;20.40;;
55633;SDS011;41504;53.162;6.788;2023-10-13T02:45:52;31.77;;;20.20;;
55633;SDS011;41504;53.162;6.788;2023-10-13T02:48:26;32.65;;;20.35;;
55633;SDS011;41504;53.162;6.788;2023-10-13T02:50:59;32.17;;;18.48;;
55633;SDS011;41504;53.162;6.788;2023-10-13T02:53:31;34.63;;;19.33;;
55633;SDS011;41504;53.162;6.788;2023-10-13T02:55:57;28.15;;;17.30;;
55633;SDS011;41504;53.162;6.788;2023-10-13T02:58:26;31.08;;;18.33;;
55633;SDS011;41504;53.162;6.788;2023-10-13T03:01:04;32.95;;;19.83;;
55633;SDS011;41504;53.162;6.788;2023-10-13T03:03:42;34.53;;;20.00;;
55633;SDS011;41504;53.162;6.788;2023-10-13T03:06:09;39.08;;;20.70;;
55633;SDS011;41504;53.162;6.788;2023-10-13T03:08:55;37.13;;;22.98;;
55633;SDS011;41504;53.162;6.788;2023-10-13T03:11:21;41.60;;;24.83;;
55633;SDS011;41504;53.162;6.788;2023-10-13T03:13:49;43.38;;;23.67;;
55633;SDS011;41504;53.162;6.788;2023-10-13T03:16:17;40.60;;;24.50;;
55633;SDS011;41504;53.162;6.788;2023-10-13T03:18:45;43.85;;;25.58;;
55633;SDS011;41504;53.162;6.788;2023-10-13T03:21:21;37.90;;;24.40;;
55633;SDS011;41504;53.162;6.788;2023-10-13T03:23:55;43.25;;;25.80;;
55633;SDS011;41504;53.162;6.788;2023-10-13T03:26:22;45.97;;;26.52;;
55633;SDS011;41504;53.162;6.788;2023-10-13T03:28:47;35.63;;;22.90;;
55633;SDS011;41504;53.162;6.788;2023-10-13T03:31:18;39.95;;;24.48;;
55633;SDS011;41504;53.162;6.788;2023-10-13T03:33:45;40.97;;;24.80;;
55633;SDS011;41504;53.162;6.788;2023-10-13T03:36:13;34.15;;;22.45;;
55633;SDS011;41504;53.162;6.788;2023-10-13T03:38:59;35.50;;;22.83;;
55633;SDS011;41504;53.162;6.788;2023-10-13T03:41:24;37.92;;;23.77;;
55633;SDS011;41504;53.162;6.788;2023-10-13T03:43:55;33.70;;;21.30;;
55633;SDS011;41504;53.162;6.788;2023-10-13T03:46:38;26.33;;;17.13;;
55633;SDS011;41504;53.162;6.788;2023-10-13T03:49:06;27.88;;;18.30;;
55633;SDS011;41504;53.162;6.788;2023-10-13T03:51:38;24.88;;;16.55;;
55633;SDS011;41504;53.162;6.788;2023-10-13T03:54:04;26.17;;;15.95;;
55633;SDS011;41504;53.162;6.788;2023-10-13T03:56:34;25.30;;;16.27;;
55633;SDS011;41504;53.162;6.788;2023-10-13T03:59:06;24.90;;;16.50;;
55633;SDS011;41504;53.162;6.788;2023-10-13T04:01:38;23.85;;;15.98;;
55633;SDS011;41504;53.162;6.788;2023-10-13T04:04:25;26.52;;;17.70;;
55633;SDS011;41504;53.162;6.788;2023-10-13T04:07:10;27.17;;;17.95;;
55633;SDS011;41504;53.162;6.788;2023-10-13T04:09:36;30.48;;;17.92;;
55633;SDS011;41504;53.162;6.788;2023-10-13T04:12:20;31.75;;;18.58;;
55633;SDS011;41504;53.162;6.788;2023-10-13T04:15:04;28.00;;;17.80;;
55633;SDS011;41504;53.162;6.788;2023-10-13T04:17:30;30.20;;;17.60;;
55633;SDS011;41504;53.162;6.788;2023-10-13T04:20:05;26.92;;;16.92;;
55633;SDS011;41504;53.162;6.788;2023-10-13T04:28:11;28.38;;;15.25;;
55633;SDS011;41504;53.162;6.788;2023-10-13T04:30:59;27.58;;;15.85;;
55633;SDS011;41504;53.162;6.788;2023-10-13T04:33:37;24.60;;;15.73;;
55633;SDS011;41504;53.162;6.788;2023-10-13T04:36:16;24.33;;;15.55;;
55633;SDS011;41504;53.162;6.788;2023-10-13T04:38:46;23.63;;;14.32;;
55633;SDS011;41504;53.162;6.788;2023-10-13T04:41:25;24.35;;;14.68;;
55633;SDS011;41504;53.162;6.788;2023-10-13T04:43:57;26.40;;;15.40;;
55633;SDS011;41504;53.162;6.788;2023-10-13T04:46:30;26.02;;;15.38;;
55633;SDS011;41504;53.162;6.788;2023-10-13T04:49:11;23.02;;;14.63;;
55633;SDS011;41504;53.162;6.788;2023-10-13T04:51:55;25.48;;;15.65;;
55633;SDS011;41504;53.162;6.788;2023-10-13T04:54:27;24.27;;;15.98;;
55633;SDS011;41504;53.162;6.788;2023-10-13T04:57:12;28.60;;;16.40;;
55633;SDS011;41504;53.162;6.788;2023-10-13T04:59:44;24.77;;;15.68;;
55633;SDS011;41504;53.162;6.788;2023-10-13T05:02:29;26.70;;;16.23;;
55633;SDS011;41504;53.162;6.788;2023-10-13T05:05:14;29.85;;;16.75;;
55633;SDS011;41504;53.162;6.788;2023-10-13T05:07:43;26.98;;;16.88;;
55633;SDS011;41504;53.162;6.788;2023-10-13T05:10:30;27.50;;;16.90;;
55633;SDS011;41504;53.162;6.788;2023-10-13T05:13:17;28.08;;;17.17;;
55633;SDS011;41504;53.162;6.788;2023-10-13T05:16:01;26.48;;;16.92;;
55633;SDS011;41504;53.162;6.788;2023-10-13T05:18:50;28.77;;;17.05;;
55633;SDS011;41504;53.162;6.788;2023-10-13T05:21:34;24.50;;;16.48;;
55633;SDS011;41504;53.162;6.788;2023-10-13T05:24:19;27.75;;;16.60;;
55633;SDS011;41504;53.162;6.788;2023-10-13T05:27:03;29.70;;;16.65;;
55633;SDS011;41504;53.162;6.788;2023-10-13T05:29:47;22.98;;;14.70;;
55633;SDS011;41504;53.162;6.788;2023-10-13T05:32:32;23.65;;;14.98;;
55633;SDS011;41504;53.162;6.788;2023-10-13T05:35:19;23.35;;;15.07;;
55633;SDS011;41504;53.162;6.788;2023-10-13T05:38:04;19.83;;;12.55;;
55633;SDS011;41504;53.162;6.788;2023-10-13T05:40:56;19.40;;;12.80;;
55633;SDS011;41504;53.162;6.788;2023-10-13T05:43:47;17.58;;;11.95;;
55633;SDS011;41504;53.162;6.788;2023-10-13T05:46:31;15.82;;;11.38;;
55633;SDS011;41504;53.162;6.788;2023-10-13T05:49:01;17.20;;;11.25;;
55633;SDS011;41504;53.162;6.788;2023-10-13T05:51:31;15.68;;;10.73;;
55633;SDS011;41504;53.162;6.788;2023-10-13T05:54:15;14.30;;;10.13;;
55633;SDS011;41504;53.162;6.788;2023-10-13T05:56:41;12.60;;;8.38;;
55633;SDS011;41504;53.162;6.788;2023-10-13T05:59:34;14.18;;;8.90;;
55633;SDS011;41504;53.162;6.788;2023-10-13T06:02:22;13.48;;;8.32;;
55633;SDS011;41504;53.162;6.788;2023-10-13T06:05:08;11.63;;;7.70;;
55633;SDS011;41504;53.162;6.788;2023-10-13T06:07:54;9.88;;;7.28;;
55633;SDS011;41504;53.162;6.788;2023-10-13T06:10:39;9.82;;;6.97;;
55633;SDS011;41504;53.162;6.788;2023-10-13T06:13:24;11.40;;;7.47;;
55633;SDS011;41504;53.162;6.788;2023-10-13T06:16:12;12.07;;;8.05;;
55633;SDS011;41504;53.162;6.788;2023-10-13T06:18:58;8.73;;;6.20;;
55633;SDS011;41504;53.162;6.788;2023-10-13T06:21:43;11.60;;;7.32;;
55633;SDS011;41504;53.162;6.788;2023-10-13T06:24:28;9.60;;;6.40;;
55633;SDS011;41504;53.162;6.788;2023-10-13T06:27:12;10.52;;;6.57;;
55633;SDS011;41504;53.162;6.788;2023-10-13T06:29:58;11.48;;;6.72;;
55633;SDS011;41504;53.162;6.788;2023-10-13T06:32:24;10.07;;;6.50;;
55633;SDS011;41504;53.162;6.788;2023-10-13T06:34:57;8.48;;;5.50;;
55633;SDS011;41504;53.162;6.788;2023-10-13T06:37:29;8.45;;;5.82;;
55633;SDS011;41504;53.162;6.788;2023-10-13T06:39:59;7.75;;;5.47;;
55633;SDS011;41504;53.162;6.788;2023-10-13T06:42:33;8.95;;;5.47;;
55633;SDS011;41504;53.162;6.788;2023-10-13T06:45:07;8.32;;;5.78;;
55633;SDS011;41504;53.162;6.788;2023-10-13T06:47:34;7.88;;;5.45;;
55633;SDS011;41504;53.162;6.788;2023-10-13T06:50:10;8.65;;;5.82;;
55633;SDS011;41504;53.162;6.788;2023-10-13T06:52:49;7.43;;;5.35;;
55633;SDS011;41504;53.162;6.788;2023-10-13T06:55:15;8.68;;;5.13;;
55633;SDS011;41504;53.162;6.788;2023-10-13T06:57:55;9.00;;;5.22;;
55633;SDS011;41504;53.162;6.788;2023-10-13T07:00:25;7.28;;;5.10;;
55633;SDS011;41504;53.162;6.788;2023-10-13T07:03:06;6.95;;;4.47;;
55633;SDS011;41504;53.162;6.788;2023-10-13T07:05:40;8.02;;;4.85;;
55633;SDS011;41504;53.162;6.788;2023-10-13T07:08:08;8.18;;;4.40;;
55633;SDS011;41504;53.162;6.788;2023-10-13T07:10:35;8.35;;;4.65;;
55633;SDS011;41504;53.162;6.788;2023-10-13T07:13:17;7.22;;;4.32;;
55633;SDS011;41504;53.162;6.788;2023-10-13T07:15:45;8.38;;;4.63;;
55633;SDS011;41504;53.162;6.788;2023-10-13T07:18:13;8.18;;;4.32;;
55633;SDS011;41504;53.162;6.788;2023-10-13T07:20:48;9.73;;;4.32;;
55633;SDS011;41504;53.162;6.788;2023-10-13T07:23:15;9.15;;;4.18;;
55633;SDS011;41504;53.162;6.788;2023-10-13T07:25:52;9.48;;;4.38;;
55633;SDS011;41504;53.162;6.788;2023-10-13T07:28:28;7.70;;;4.20;;
55633;SDS011;41504;53.162;6.788;2023-10-13T07:30:56;7.15;;;4.00;;
55633;SDS011;41504;53.162;6.788;2023-10-13T07:33:24;7.70;;;3.72;;
55633;SDS011;41504;53.162;6.788;2023-10-13T07:36:06;10.40;;;3.88;;
55633;SDS011;41504;53.162;6.788;2023-10-13T07:38:45;8.75;;;4.18;;
55633;SDS011;41504;53.162;6.788;2023-10-13T07:41:17;10.20;;;4.18;;
55633;SDS011;41504;53.162;6.788;2023-10-13T07:43:47;9.55;;;4.05;;
55633;SDS011;41504;53.162;6.788;2023-10-13T07:46:15;8.85;;;4.22;;
55633;SDS011;41504;53.162;6.788;2023-10-13T07:48:41;8.23;;;3.90;;
55633;SDS011;41504;53.162;6.788;2023-10-13T07:51:10;8.50;;;3.95;;
55633;SDS011;41504;53.162;6.788;2023-10-13T07:53:41;10.25;;;4.28;;
55633;SDS011;41504;53.162;6.788;2023-10-13T07:56:13;9.82;;;4.20;;
55633;SDS011;41504;53.162;6.788;2023-10-13T07:58:43;10.45;;;4.38;;
55633;SDS011;41504;53.162;6.788;2023-10-13T08:01:18;8.50;;;4.22;;
55633;SDS011;41504;53.162;6.788;2023-10-13T08:03:44;9.73;;;4.38;;
55633;SDS011;41504;53.162;6.788;2023-10-13T08:06:11;9.23;;;4.65;;
55633;SDS011;41504;53.162;6.788;2023-10-13T08:08:38;10.00;;;4.60;;
55633;SDS011;41504;53.162;6.788;2023-10-13T08:13:57;11.65;;;5.05;;
55633;SDS011;41504;53.162;6.788;2023-10-13T08:16:35;10.13;;;4.75;;
55633;SDS011;41504;53.162;6.788;2023-10-13T08:19:12;8.80;;;4.55;;
55633;SDS011;41504;53.162;6.788;2023-10-13T08:21:45;10.00;;;5.00;;
55633;SDS011;41504;53.162;6.788;2023-10-13T08:24:17;10.63;;;4.78;;
55633;SDS011;41504;53.162;6.788;2023-10-13T08:27:02;10.57;;;4.68;;
55633;SDS011;41504;53.162;6.788;2023-10-13T08:29:39;10.13;;;4.82;;
55633;SDS011;41504;53.162;6.788;2023-10-13T08:35:00;10.63;;;5.57;;
55633;SDS011;41504;53.162;6.788;2023-10-13T08:37:46;10.93;;;4.65;;
55633;SDS011;41504;53.162;6.788;2023-10-13T08:40:24;13.27;;;4.72;;
55633;SDS011;41504;53.162;6.788;2023-10-13T08:43:11;11.48;;;5.32;;
55633;SDS011;41504;53.162;6.788;2023-10-13T08:45:38;12.40;;;5.55;;
55633;SDS011;41504;53.162;6.788;2023-10-13T08:48:09;10.15;;;5.18;;
55633;SDS011;41504;53.162;6.788;2023-10-13T08:50:43;12.90;;;5.70;;
55633;SDS011;41504;53.162;6.788;2023-10-13T08:53:23;12.00;;;5.47;;
55633;SDS011;41504;53.162;6.788;2023-10-13T08:58:38;11.95;;;5.15;;
55633;SDS011;41504;53.162;6.788;2023-10-13T09:04:04;12.13;;;5.80;;
55633;SDS011;41504;53.162;6.788;2023-10-13T09:09:34;10.25;;;5.90;;
55633;SDS011;41504;53.162;6.788;2023-10-13T09:12:12;11.75;;;5.82;;
55633;SDS011;41504;53.162;6.788;2023-10-13T09:14:42;12.18;;;6.68;;
55633;SDS011;41504;53.162;6.788;2023-10-13T09:17:19;14.38;;;6.68;;
55633;SDS011;41504;53.162;6.788;2023-10-13T09:19:48;14.18;;;7.38;;
55633;SDS011;41504;53.162;6.788;2023-10-13T09:22:27;15.88;;;7.32;;
55633;SDS011;41504;53.162;6.788;2023-10-13T09:25:03;16.63;;;7.25;;
55633;SDS011;41504;53.162;6.788;2023-10-13T09:27:31;12.40;;;7.13;;
55633;SDS011;41504;53.162;6.788;2023-10-13T09:29:58;11.93;;;6.70;;
55633;SDS011;41504;53.162;6.788;2023-10-13T09:32:33;13.82;;;7.13;;
55633;SDS011;41504;53.162;6.788;2023-10-13T09:35:11;16.15;;;7.10;;
55633;SDS011;41504;53.162;6.788;2023-10-13T09:37:43;14.30;;;7.37;;
55633;SDS011;41504;53.162;6.788;2023-10-13T09:40:12;13.25;;;7.43;;
55633;SDS011;41504;53.162;6.788;2023-10-13T09:42:52;14.30;;;7.28;;
55633;SDS011;41504;53.162;6.788;2023-10-13T09:45:28;14.82;;;7.20;;
55633;SDS011;41504;53.162;6.788;2023-10-13T09:48:01;13.48;;;7.05;;
55633;SDS011;41504;53.162;6.788;2023-10-13T09:50:40;14.40;;;7.18;;
55633;SDS011;41504;53.162;6.788;2023-10-13T09:53:10;11.70;;;6.75;;
55633;SDS011;41504;53.162;6.788;2023-10-13T09:55:43;12.65;;;6.50;;
55633;SDS011;41504;53.162;6.788;2023-10-13T09:58:13;17.73;;;6.35;;
55633;SDS011;41504;53.162;6.788;2023-10-13T10:03:21;10.57;;;5.93;;
55633;SDS011;41504;53.162;6.788;2023-10-13T10:06:04;15.30;;;6.40;;
55633;SDS011;41504;53.162;6.788;2023-10-13T10:08:42;13.73;;;5.72;;
55633;SDS011;41504;53.162;6.788;2023-10-13T10:14:23;10.80;;;5.95;;
55633;SDS011;41504;53.162;6.788;2023-10-13T10:17:14;13.50;;;6.30;;
55633;SDS011;41504;53.162;6.788;2023-10-13T10:19:58;16.33;;;6.25;;
55633;SDS011;41504;53.162;6.788;2023-10-13T10:22:27;11.27;;;5.55;;
55633;SDS011;41504;53.162;6.788;2023-10-13T10:24:56;11.45;;;5.45;;
55633;SDS011;41504;53.162;6.788;2023-10-13T10:27:28;15.38;;;5.75;;
55633;SDS011;41504;53.162;6.788;2023-10-13T10:29:58;11.80;;;5.60;;
55633;SDS011;41504;53.162;6.788;2023-10-13T10:32:37;10.02;;;4.97;;
55633;SDS011;41504;53.162;6.788;2023-10-13T10:35:09;12.80;;;5.20;;
55633;SDS011;41504;53.162;6.788;2023-10-13T10:37:45;14.55;;;5.65;;
55633;SDS011;41504;53.162;6.788;2023-10-13T10:40:16;11.35;;;5.93;;
55633;SDS011;41504;53.162;6.788;2023-10-13T10:43:02;13.75;;;5.70;;
55633;SDS011;41504;53.162;6.788;2023-10-13T10:45:33;13.35;;;5.53;;
55633;SDS011;41504;53.162;6.788;2023-10-13T10:48:01;15.93;;;5.50;;
55633;SDS011;41504;53.162;6.788;2023-10-13T10:50:42;12.95;;;5.28;;
55633;SDS011;41504;53.162;6.788;2023-10-13T10:53:08;11.88;;;5.07;;
55633;SDS011;41504;53.162;6.788;2023-10-13T10:55:37;14.82;;;5.82;;
55633;SDS011;41504;53.162;6.788;2023-10-13T10:58:03;13.98;;;5.63;;
55633;SDS011;41504;53.162;6.788;2023-10-13T11:00:48;10.55;;;5.18;;
55633;SDS011;41504;53.162;6.788;2023-10-13T11:03:15;16.70;;;5.85;;
55633;SDS011;41504;53.162;6.788;2023-10-13T11:05:46;15.80;;;5.20;;
55633;SDS011;41504;53.162;6.788;2023-10-13T11:08:22;13.93;;;5.55;;
55633;SDS011;41504;53.162;6.788;2023-10-13T11:10:58;13.25;;;5.45;;
55633;SDS011;41504;53.162;6.788;2023-10-13T11:13:39;16.77;;;6.18;;
55633;SDS011;41504;53.162;6.788;2023-10-13T11:16:19;12.73;;;4.97;;
55633;SDS011;41504;53.162;6.788;2023-10-13T11:18:59;17.02;;;5.57;;
55633;SDS011;41504;53.162;6.788;2023-10-13T11:21:28;13.75;;;5.53;;
55633;SDS011;41504;53.162;6.788;2023-10-13T11:23:56;16.17;;;5.80;;
55633;SDS011;41504;53.162;6.788;2023-10-13T11:26:32;13.90;;;5.60;;
55633;SDS011;41504;53.162;6.788;2023-10-13T11:29:30;13.35;;;5.40;;
55633;SDS011;41504;53.162;6.788;2023-10-13T11:31:56;12.52;;;5.88;;
55633;SDS011;41504;53.162;6.788;2023-10-13T11:34:25;15.02;;;5.35;;
55633;SDS011;41504;53.162;6.788;2023-10-13T11:37:04;15.32;;;5.55;;
55633;SDS011;41504;53.162;6.788;2023-10-13T11:39:50;12.20;;;4.95;;
55633;SDS011;41504;53.162;6.788;2023-10-13T11:42:17;13.23;;;5.32;;
55633;SDS011;41504;53.162;6.788;2023-10-13T11:44:43;12.40;;;5.40;;
55633;SDS011;41504;53.162;6.788;2023-10-13T11:47:09;13.25;;;5.28;;
55633;SDS011;41504;53.162;6.788;2023-10-13T11:50:01;15.07;;;5.70;;
55633;SDS011;41504;53.162;6.788;2023-10-13T11:52:30;11.98;;;5.55;;
55633;SDS011;41504;53.162;6.788;2023-10-13T11:54:56;16.30;;;5.70;;
55633;SDS011;41504;53.162;6.788;2023-10-13T11:57:22;14.73;;;5.63;;
55633;SDS011;41504;53.162;6.788;2023-10-13T11:59:48;12.05;;;5.35;;
55633;SDS011;41504;53.162;6.788;2023-10-13T12:02:21;12.48;;;5.32;;
55633;SDS011;41504;53.162;6.788;2023-10-13T12:04:53;14.10;;;5.78;;
55633;SDS011;41504;53.162;6.788;2023-10-13T12:07:36;14.70;;;5.53;;
55633;SDS011;41504;53.162;6.788;2023-10-13T12:10:10;15.95;;;5.88;;
55633;SDS011;41504;53.162;6.788;2023-10-13T12:12:58;13.70;;;5.10;;
55633;SDS011;41504;53.162;6.788;2023-10-13T12:15:31;13.50;;;5.90;;
55633;SDS011;41504;53.162;6.788;2023-10-13T12:18:13;11.07;;;5.80;;
55633;SDS011;41504;53.162;6.788;2023-10-13T12:20:40;13.98;;;5.57;;
55633;SDS011;41504;53.162;6.788;2023-10-13T12:23:11;14.90;;;6.03;;
55633;SDS011;41504;53.162;6.788;2023-10-13T12:25:42;16.02;;;5.95;;
55633;SDS011;41504;53.162;6.788;2023-10-13T12:28:22;13.23;;;5.20;;
55633;SDS011;41504;53.162;6.788;2023-10-13T12:30:51;16.05;;;5.80;;
55633;SDS011;41504;53.162;6.788;2023-10-13T12:33:21;12.98;;;5.18;;
55633;SDS011;41504;53.162;6.788;2023-10-13T12:35:56;10.27;;;5.40;;
55633;SDS011;41504;53.162;6.788;2023-10-13T12:38:34;14.18;;;5.93;;
55633;SDS011;41504;53.162;6.788;2023-10-13T12:41:15;12.32;;;6.00;;
55633;SDS011;41504;53.162;6.788;2023-10-13T12:44:03;15.32;;;6.25;;
55633;SDS011;41504;53.162;6.788;2023-10-13T12:46:49;13.57;;;5.60;;
55633;SDS011;41504;53.162;6.788;2023-10-13T12:49:33;15.88;;;5.93;;
55633;SDS011;41504;53.162;6.788;2023-10-13T12:52:05;13.52;;;6.93;;
55633;SDS011;41504;53.162;6.788;2023-10-13T12:54:44;15.25;;;6.50;;
55633;SDS011;41504;53.162;6.788;2023-10-13T12:57:22;13.88;;;6.15;;
55633;SDS011;41504;53.162;6.788;2023-10-13T12:59:49;13.02;;;6.47;;
55633;SDS011;41504;53.162;6.788;2023-10-13T13:02:18;14.10;;;6.32;;
55633;SDS011;41504;53.162;6.788;2023-10-13T13:04:45;14.65;;;6.88;;
55633;SDS011;41504;53.162;6.788;2023-10-13T13:07:13;14.02;;;6.63;;
55633;SDS011;41504;53.162;6.788;2023-10-13T13:09:42;15.55;;;7.10;;
55633;SDS011;41504;53.162;6.788;2023-10-13T13:12:08;14.63;;;6.72;;
55633;SDS011;41504;53.162;6.788;2023-10-13T13:14:38;13.60;;;7.03;;
55633;SDS011;41504;53.162;6.788;2023-10-13T13:17:06;18.20;;;7.00;;
55633;SDS011;41504;53.162;6.788;2023-10-13T13:22:01;18.00;;;6.80;;
55633;SDS011;41504;53.162;6.788;2023-10-13T13:24:28;14.73;;;7.25;;
55633;SDS011;41504;53.162;6.788;2023-10-13T13:26:58;20.48;;;7.30;;
55633;SDS011;41504;53.162;6.788;2023-10-13T13:29:30;16.20;;;6.88;;
55633;SDS011;41504;53.162;6.788;2023-10-13T13:31:56;14.63;;;7.20;;
55633;SDS011;41504;53.162;6.788;2023-10-13T13:34:22;15.70;;;7.72;;
55633;SDS011;41504;53.162;6.788;2023-10-13T13:36:48;15.07;;;7.28;;
55633;SDS011;41504;53.162;6.788;2023-10-13T13:39:20;17.27;;;7.75;;
55633;SDS011;41504;53.162;6.788;2023-10-13T13:41:55;15.60;;;7.32;;
55633;SDS011;41504;53.162;6.788;2023-10-13T13:44:24;13.98;;;7.28;;
55633;SDS011;41504;53.162;6.788;2023-10-13T13:47:01;20.50;;;7.90;;
55633;SDS011;41504;53.162;6.788;2023-10-13T13:49:39;13.98;;;7.10;;
55633;SDS011;41504;53.162;6.788;2023-10-13T13:52:11;14.80;;;7.40;;
55633;SDS011;41504;53.162;6.788;2023-10-13T13:54:43;14.10;;;7.35;;
55633;SDS011;41504;53.162;6.788;2023-10-13T13:57:09;15.45;;;7.35;;
55633;SDS011;41504;53.162;6.788;2023-10-13T13:59:35;16.98;;;7.00;;
55633;SDS011;41504;53.162;6.788;2023-10-13T14:02:03;18.20;;;7.95;;
55633;SDS011;41504;53.162;6.788;2023-10-13T14:04:45;17.75;;;7.50;;
55633;SDS011;41504;53.162;6.788;2023-10-13T14:07:12;16.20;;;7.88;;
55633;SDS011;41504;53.162;6.788;2023-10-13T14:09:40;15.77;;;7.18;;
55633;SDS011;41504;53.162;6.788;2023-10-13T14:12:09;15.68;;;7.35;;
55633;SDS011;41504;53.162;6.788;2023-10-13T14:14:53;17.02;;;7.60;;
55633;SDS011;41504;53.162;6.788;2023-10-13T14:17:22;17.60;;;8.45;;
55633;SDS011;41504;53.162;6.788;2023-10-13T14:19:58;15.13;;;7.65;;
55633;SDS011;41504;53.162;6.788;2023-10-13T14:22:24;17.60;;;8.07;;
55633;SDS011;41504;53.162;6.788;2023-10-13T14:24:50;18.02;;;7.75;;
55633;SDS011;41504;53.162;6.788;2023-10-13T14:27:20;13.10;;;7.53;;
55633;SDS011;41504;53.162;6.788;2023-10-13T14:29:51;17.95;;;7.93;;
55633;SDS011;41504;53.162;6.788;2023-10-13T14:32:18;17.42;;;7.80;;
55633;SDS011;41504;53.162;6.788;2023-10-13T14:34:47;15.60;;;7.88;;
55633;SDS011;41504;53.162;6.788;2023-10-13T14:37:19;18.35;;;8.27;;
55633;SDS011;41504;53.162;6.788;2023-10-13T14:40:03;17.45;;;8.05;;
55633;SDS011;41504;53.162;6.788;2023-10-13T14:42:29;16.95;;;8.50;;
55633;SDS011;41504;53.162;6.788;2023-10-13T14:45:00;15.75;;;7.47;;
55633;SDS011;41504;53.162;6.788;2023-10-13T14:47:26;17.77;;;7.18;;
55633;SDS011;41504;53.162;6.788;2023-10-13T14:49:55;14.93;;;7.07;;
55633;SDS011;41504;53.162;6.788;2023-10-13T14:52:25;13.35;;;7.00;;
55633;SDS011;41504;53.162;6.788;2023-10-13T14:54:51;15.32;;;7.75;;
55633;SDS011;41504;53.162;6.788;2023-10-13T14:57:23;18.07;;;7.37;;
55633;SDS011;41504;53.162;6.788;2023-10-13T14:59:55;18.17;;;7.32;;
55633;SDS011;41504;53.162;6.788;2023-10-13T15:02:22;14.70;;;7.50;;
55633;SDS011;41504;53.162;6.788;2023-10-13T15:04:48;14.52;;;6.82;;
55633;SDS011;41504;53.162;6.788;2023-10-13T15:07:15;16.25;;;7.43;;
55633;SDS011;41504;53.162;6.788;2023-10-13T15:09:42;14.27;;;7.15;;
55633;SDS011;41504;53.162;6.788;2023-10-13T15:12:09;18.48;;;7.82;;
55633;SDS011;41504;53.162;6.788;2023-10-13T15:14:38;14.48;;;7.30;;
55633;SDS011;41504;53.162;6.788;2023-10-13T15:17:09;17.80;;;8.27;;
55633;SDS011;41504;53.162;6.788;2023-10-13T15:19:38;19.13;;;8.00;;
55633;SDS011;41504;53.162;6.788;2023-10-13T15:22:04;13.90;;;7.72;;
55633;SDS011;41504;53.162;6.788;2023-10-13T15:24:42;14.07;;;7.70;;
55633;SDS011;41504;53.162;6.788;2023-10-13T15:27:22;15.02;;;7.95;;
55633;SDS011;41504;53.162;6.788;2023-10-13T15:29:48;15.70;;;8.77;;
55633;SDS011;41504;53.162;6.788;2023-10-13T15:32:16;18.35;;;8.98;;
55633;SDS011;41504;53.162;6.788;2023-10-13T15:35:00;17.55;;;8.60;;
55633;SDS011;41504;53.162;6.788;2023-10-13T15:37:26;15.88;;;8.88;;
55633;SDS011;41504;53.162;6.788;2023-10-13T15:39:55;17.10;;;9.50;;
55633;SDS011;41504;53.162;6.788;2023-10-13T15:42:23;16.67;;;9.20;;